createdAt,value
2018-01-25T00:02:12.725Z,2.45
2018-01-25T00:04:42.173Z,2.41
2018-01-25T00:07:11.085Z,2.38
2018-01-25T00:09:40.559Z,2.35
2018-01-25T00:12:08.273Z,2.35
2018-01-25T00:14:35.959Z,2.33
2018-01-25T00:17:03.601Z,2.30
2018-01-25T00:19:31.439Z,2.28
2018-01-25T00:22:00.727Z,2.26
2018-01-25T00:24:30.024Z,2.25
2018-01-25T00:26:57.981Z,2.20
2018-01-25T00:29:25.652Z,2.12
2018-01-25T00:31:53.379Z,2.11
2018-01-25T00:34:21.789Z,2.08
2018-01-25T00:36:49.466Z,2.04
2018-01-25T00:39:18.907Z,2.03
2018-01-25T00:41:46.594Z,2.00
2018-01-25T00:44:14.247Z,1.97
2018-01-25T00:46:41.918Z,1.96
2018-01-25T00:49:10.441Z,1.98
2018-01-25T00:51:38.089Z,1.99
2018-01-25T00:54:05.717Z,2.00
2018-01-25T00:56:33.565Z,1.99
2018-01-25T00:59:02.035Z,2.01
2018-01-25T01:01:29.731Z,2.01
2018-01-25T01:03:58.141Z,2.00
2018-01-25T01:06:28.405Z,2.02
2018-01-25T01:08:56.209Z,2.03
2018-01-25T01:11:23.870Z,2.02
2018-01-25T01:13:52.323Z,2.04
2018-01-25T01:16:20.029Z,2.01
2018-01-25T01:18:47.880Z,2.00
2018-01-25T01:21:17.382Z,2.00
2018-01-25T01:23:45.383Z,1.96
2018-01-25T01:26:14.683Z,1.93
2018-01-25T01:28:42.353Z,1.91
2018-01-25T01:31:10.006Z,1.90
2018-01-25T01:33:37.661Z,1.87
2018-01-25T01:36:05.275Z,1.85
2018-01-25T01:38:32.933Z,1.88
2018-01-25T01:41:02.305Z,1.90
2018-01-25T01:43:29.985Z,1.91
2018-01-25T01:45:59.413Z,1.92
2018-01-25T01:48:27.143Z,1.89
2018-01-25T01:50:56.407Z,1.87
2018-01-25T01:53:24.182Z,1.86
2018-01-25T01:55:51.845Z,1.84
2018-01-25T01:58:19.488Z,1.82
2018-01-25T02:00:47.153Z,1.79
2018-01-25T02:03:14.903Z,1.75
2018-01-25T02:05:42.655Z,1.72
2018-01-25T02:08:10.312Z,1.64
2018-01-25T02:10:38.778Z,1.61
2018-01-25T02:13:06.483Z,1.58
2018-01-25T02:15:34.199Z,1.55
2018-01-25T02:18:01.857Z,1.56
2018-01-25T02:20:29.567Z,1.55
2018-01-25T02:22:57.451Z,1.53
2018-01-25T02:25:26.846Z,1.53
2018-01-25T02:27:54.582Z,1.52
2018-01-25T02:30:22.216Z,1.53
2018-01-25T02:32:50.164Z,1.54
2018-01-25T02:35:17.845Z,1.54
2018-01-25T02:37:47.210Z,1.53
2018-01-25T02:40:14.980Z,1.49
2018-01-25T02:42:43.420Z,1.48
2018-01-25T02:45:11.090Z,1.47
2018-01-25T02:47:38.833Z,1.47
2018-01-25T02:50:06.514Z,1.48
2018-01-25T02:52:34.134Z,1.48
2018-01-25T02:55:01.784Z,1.46
2018-01-25T02:57:29.422Z,1.44
2018-01-25T02:59:57.123Z,1.43
2018-01-25T03:02:24.754Z,1.43
2018-01-25T03:04:52.541Z,1.40
2018-01-25T03:07:20.336Z,1.39
2018-01-25T03:09:48.656Z,1.37
2018-01-25T03:12:16.390Z,1.36
2018-01-25T03:14:44.762Z,1.35
2018-01-25T03:17:12.417Z,1.36
2018-01-25T03:19:41.802Z,1.35
2018-01-25T03:22:09.624Z,1.34
2018-01-25T03:24:39.024Z,1.33
2018-01-25T03:27:07.280Z,1.33
2018-01-25T03:29:34.908Z,1.31
2018-01-25T03:32:03.289Z,1.32
2018-01-25T03:34:31.710Z,1.33
2018-01-25T03:36:59.304Z,1.32
2018-01-25T03:39:26.988Z,1.30
2018-01-25T03:41:54.608Z,1.33
2018-01-25T03:44:22.374Z,1.35
2018-01-25T03:46:50.028Z,1.32
2018-01-25T03:49:17.646Z,1.31
2018-01-25T03:51:45.363Z,1.29
2018-01-25T03:54:12.983Z,1.30
2018-01-25T03:56:40.748Z,1.31
2018-01-25T03:59:08.501Z,1.31
2018-01-25T04:01:39.894Z,1.29
2018-01-25T04:04:08.247Z,1.27
2018-01-25T04:06:38.021Z,1.26
2018-01-25T04:09:05.677Z,1.32
2018-01-25T04:11:33.372Z,1.34
2018-01-25T04:14:01.032Z,1.33
2018-01-25T04:16:30.392Z,1.33
2018-01-25T04:18:58.404Z,1.32
2018-01-25T04:21:26.040Z,1.32
2018-01-25T04:23:53.775Z,1.30
2018-01-25T04:26:21.485Z,1.29
2018-01-25T04:28:49.126Z,1.28
2018-01-25T04:31:16.839Z,1.28
2018-01-25T04:33:46.030Z,1.28
2018-01-25T04:36:15.432Z,1.28
2018-01-25T04:38:43.081Z,1.29
2018-01-25T04:41:10.742Z,1.29
2018-01-25T04:43:38.372Z,1.30
2018-01-25T04:46:06.044Z,1.34
2018-01-25T04:48:34.446Z,1.35
2018-01-25T04:51:02.149Z,1.35
2018-01-25T04:53:29.798Z,1.37
2018-01-25T04:55:57.454Z,1.35
2018-01-25T04:58:25.203Z,1.34
2018-01-25T05:00:52.856Z,1.33
2018-01-25T05:03:20.529Z,1.33
2018-01-25T05:05:48.208Z,1.33
2018-01-25T05:08:15.848Z,1.32
2018-01-25T05:10:43.477Z,1.32
2018-01-25T05:13:11.274Z,1.32
2018-01-25T05:15:40.512Z,1.33
2018-01-25T05:18:08.222Z,1.34
2018-01-25T05:20:37.612Z,1.34
2018-01-25T05:23:05.329Z,1.31
2018-01-25T05:25:33.097Z,1.29
2018-01-25T05:28:03.053Z,1.26
2018-01-25T05:30:33.471Z,1.25
2018-01-25T05:33:01.196Z,1.23
2018-01-25T05:35:28.876Z,1.22
2018-01-25T05:37:58.351Z,1.17
2018-01-25T05:40:26.031Z,1.16
2018-01-25T05:42:53.797Z,1.18
2018-01-25T05:45:24.649Z,1.19
2018-01-25T05:47:54.051Z,1.16
2018-01-25T05:50:21.727Z,1.14
2018-01-25T05:52:49.431Z,1.14
2018-01-25T05:55:17.159Z,1.12
2018-01-25T05:57:44.915Z,1.11
2018-01-25T06:00:12.633Z,1.13
2018-01-25T06:02:41.883Z,1.17
2018-01-25T06:05:09.714Z,1.18
2018-01-25T06:07:37.391Z,1.20
2018-01-25T06:10:05.804Z,1.20
2018-01-25T06:12:33.480Z,1.19
2018-01-25T06:15:01.183Z,1.20
2018-01-25T06:17:28.907Z,1.18
2018-01-25T06:19:58.797Z,1.17
2018-01-25T06:22:26.457Z,1.15
2018-01-25T06:24:54.175Z,1.12
2018-01-25T06:27:21.850Z,1.12
2018-01-25T06:29:49.479Z,1.12
2018-01-25T06:32:17.403Z,1.12
2018-01-25T06:34:45.197Z,1.11
2018-01-25T06:37:12.917Z,1.08
2018-01-25T06:39:40.575Z,1.07
2018-01-25T06:42:08.391Z,1.07
2018-01-25T06:44:38.300Z,1.08
2018-01-25T06:47:08.657Z,1.10
2018-01-25T06:49:36.368Z,1.10
2018-01-25T06:52:04.068Z,1.10
2018-01-25T06:54:31.700Z,1.08
2018-01-25T06:56:59.329Z,1.08
2018-01-25T06:59:28.727Z,1.06
2018-01-25T07:02:00.741Z,1.04
2018-01-25T07:04:28.487Z,1.02
2018-01-25T07:06:56.841Z,1.01
2018-01-25T07:09:27.060Z,1.01
2018-01-25T07:11:54.743Z,1.03
2018-01-25T07:14:22.408Z,1.03
2018-01-25T07:16:50.082Z,1.02
2018-01-25T07:19:17.724Z,1.05
2018-01-25T07:21:45.404Z,1.07
2018-01-25T07:24:13.085Z,1.11
2018-01-25T07:26:40.713Z,1.12
2018-01-25T07:29:08.513Z,1.15
2018-01-25T07:31:36.988Z,1.18
2018-01-25T07:34:07.332Z,1.19
2018-01-25T07:36:35.180Z,1.16
2018-01-25T07:39:02.914Z,1.12
2018-01-25T07:41:32.306Z,1.16
2018-01-25T07:44:00.408Z,1.16
2018-01-25T07:46:28.081Z,1.17
2018-01-25T07:48:55.814Z,1.22
2018-01-25T07:51:25.071Z,1.25
2018-01-25T07:53:52.775Z,1.29
2018-01-25T07:56:23.278Z,1.33
2018-01-25T07:58:50.993Z,1.35
2018-01-25T08:01:18.732Z,1.37
2018-01-25T08:03:46.592Z,1.38
2018-01-25T08:06:14.292Z,1.40
2018-01-25T08:08:42.118Z,1.44
2018-01-25T08:11:13.756Z,1.47
2018-01-25T08:13:41.440Z,1.52
2018-01-25T08:16:17.948Z,1.56
2018-01-25T08:18:47.346Z,1.60
2018-01-25T08:21:15.118Z,1.64
2018-01-25T08:23:43.150Z,1.68
2018-01-25T08:26:10.919Z,1.71
2018-01-25T08:28:38.604Z,1.75
2018-01-25T08:31:06.343Z,1.78
2018-01-25T08:33:34.013Z,1.85
2018-01-25T08:36:01.899Z,1.90
2018-01-25T08:38:29.588Z,1.97
2018-01-25T08:40:57.242Z,2.04
2018-01-25T08:43:25.299Z,2.10
2018-01-25T08:45:54.725Z,2.19
2018-01-25T08:48:22.522Z,2.26
2018-01-25T08:50:50.991Z,2.31
2018-01-25T08:53:18.782Z,2.38
2018-01-25T08:55:46.576Z,2.46
2018-01-25T08:58:14.269Z,2.54
2018-01-25T09:00:41.938Z,2.64
2018-01-25T09:03:10.405Z,2.71
2018-01-25T09:05:40.690Z,2.81
2018-01-25T09:08:11.368Z,2.91
2018-01-25T09:10:39.021Z,2.97
2018-01-25T09:13:06.912Z,3.05
2018-01-25T09:15:34.910Z,3.12
2018-01-25T09:18:04.175Z,3.19
2018-01-25T09:20:31.939Z,3.31
2018-01-25T09:23:01.373Z,3.41
2018-01-25T09:25:29.172Z,3.52
2018-01-25T09:27:58.596Z,3.66
2018-01-25T09:30:26.578Z,3.74
2018-01-25T09:32:54.484Z,3.84
2018-01-25T09:35:23.358Z,3.97
2018-01-25T09:37:52.801Z,4.09
2018-01-25T09:40:20.560Z,4.21
2018-01-25T09:42:51.166Z,4.30
2018-01-25T09:45:18.919Z,4.40
2018-01-25T09:47:46.615Z,4.48
2018-01-25T09:50:14.501Z,4.55
2018-01-25T09:52:42.573Z,4.68
2018-01-25T09:55:10.316Z,4.78
2018-01-25T10:10:38.992Z,5.26
2018-01-25T10:13:07.047Z,5.37
2018-01-25T10:15:34.850Z,5.47
2018-01-25T10:18:03.421Z,5.57
2018-01-25T10:20:31.243Z,5.64
2018-01-25T10:22:58.987Z,5.79
2018-01-25T10:25:26.809Z,5.97
2018-01-25T10:27:57.791Z,6.12
2018-01-25T10:30:25.682Z,6.27
2018-01-25T10:32:53.343Z,6.40
2018-01-25T10:35:23.731Z,6.52
2018-01-25T10:37:51.456Z,6.69
2018-01-25T10:40:21.189Z,6.87
2018-01-25T10:42:49.017Z,6.99
2018-01-25T10:45:16.845Z,7.09
2018-01-25T10:47:44.563Z,7.21
2018-01-25T10:50:12.460Z,7.29
2018-01-25T10:52:41.099Z,7.37
2018-01-25T10:55:08.963Z,7.49
2018-01-25T10:57:38.442Z,7.67
2018-01-25T11:00:08.837Z,7.80
2018-01-25T11:02:36.582Z,7.92
2018-01-25T11:05:06.183Z,8.02
2018-01-25T11:07:35.607Z,8.13
2018-01-25T11:10:04.163Z,8.22
2018-01-25T11:12:31.835Z,8.31
2018-01-25T11:14:59.577Z,8.36
2018-01-25T11:17:27.299Z,8.43
2018-01-25T11:19:57.124Z,8.55
2018-01-25T11:22:27.409Z,8.63
2018-01-25T11:24:56.869Z,8.67
2018-01-25T11:27:24.623Z,8.72
2018-01-25T11:29:52.357Z,8.75
2018-01-25T11:32:20.059Z,8.81
2018-01-25T11:34:47.783Z,8.89
2018-01-25T11:37:15.486Z,9.01
2018-01-25T11:39:45.757Z,9.11
2018-01-25T11:42:13.477Z,9.15
2018-01-25T11:44:41.929Z,9.13
2018-01-25T11:47:09.668Z,9.13
2018-01-25T11:49:37.427Z,9.15
2018-01-25T11:52:05.385Z,9.25
2018-01-25T11:54:33.273Z,9.38
2018-01-25T11:57:00.981Z,9.43
2018-01-25T11:59:28.944Z,9.49
2018-01-25T12:01:56.571Z,9.55
2018-01-25T12:04:25.893Z,9.66
2018-01-25T12:06:53.498Z,9.78
2018-01-25T12:09:25.125Z,9.79
2018-01-25T12:11:54.590Z,9.85
2018-01-25T12:14:24.069Z,9.94
2018-01-25T12:16:51.760Z,10.00
2018-01-25T12:19:19.455Z,10.00
2018-01-25T12:21:49.122Z,10.02
2018-01-25T12:24:19.074Z,10.03
2018-01-25T12:26:46.791Z,10.09
2018-01-25T12:29:14.568Z,10.14
2018-01-25T12:31:42.226Z,10.20
2018-01-25T12:34:09.872Z,10.25
2018-01-25T12:36:37.541Z,10.31
2018-01-25T12:39:05.250Z,10.41
2018-01-25T12:41:32.999Z,10.57
2018-01-25T12:44:00.767Z,10.67
2018-01-25T12:46:28.613Z,10.74
2018-01-25T12:48:58.071Z,10.76
2018-01-25T12:51:25.782Z,10.75
2018-01-25T12:53:53.512Z,10.73
2018-01-25T12:56:21.352Z,10.73
2018-01-25T12:58:48.991Z,10.73
2018-01-25T13:01:18.243Z,10.78
2018-01-25T13:03:45.908Z,10.80
2018-01-25T13:06:13.567Z,10.80
2018-01-25T13:08:41.379Z,10.85
2018-01-25T13:11:09.522Z,10.88
2018-01-25T13:13:37.198Z,10.88
2018-01-25T13:16:04.934Z,10.85
2018-01-25T13:18:32.655Z,10.84
2018-01-25T13:21:00.296Z,10.84
2018-01-25T13:23:27.956Z,10.82
2018-01-25T13:25:57.380Z,10.81
2018-01-25T13:28:25.816Z,10.83
2018-01-25T13:30:53.518Z,10.88
2018-01-25T13:33:26.695Z,10.91
2018-01-25T13:35:55.114Z,10.91
2018-01-25T13:38:23.107Z,10.86
2018-01-25T13:40:50.764Z,10.84
2018-01-25T13:43:20.625Z,10.83
2018-01-25T13:45:50.202Z,10.79
2018-01-25T13:48:20.546Z,10.76
2018-01-25T13:50:50.892Z,10.73
2018-01-25T13:53:18.566Z,10.69
2018-01-25T13:55:46.243Z,10.67
2018-01-25T13:58:13.914Z,10.66
2018-01-25T14:03:13.790Z,10.65
2018-01-25T14:05:41.498Z,10.62
2018-01-25T14:08:09.208Z,10.59
2018-01-25T14:10:37.831Z,10.56
2018-01-25T14:13:06.492Z,10.54
2018-01-25T14:15:34.403Z,10.52
2018-01-25T14:18:02.620Z,10.50
2018-01-25T14:20:30.694Z,10.44
2018-01-25T14:22:58.533Z,10.41
2018-01-25T14:25:27.290Z,10.37
2018-01-25T14:27:55.204Z,10.34
2018-01-25T14:30:22.824Z,10.29
2018-01-25T14:32:50.561Z,10.24
2018-01-25T14:35:19.954Z,10.18
2018-01-25T14:37:47.674Z,10.12
2018-01-25T14:40:15.226Z,10.06
2018-01-25T14:42:43.155Z,10.00
2018-01-25T14:45:12.480Z,9.94
2018-01-25T14:47:41.841Z,9.91
2018-01-25T14:50:10.222Z,9.85
2018-01-25T14:52:40.065Z,9.78
2018-01-25T14:55:07.799Z,9.72
2018-01-25T14:57:35.428Z,9.67
2018-01-25T15:00:05.046Z,9.62
2018-01-25T15:02:32.937Z,9.55
2018-01-25T15:05:03.182Z,9.51
2018-01-25T15:07:30.950Z,9.47
2018-01-25T15:10:00.429Z,9.41
2018-01-25T15:12:28.179Z,9.34
2018-01-25T15:14:58.168Z,9.28
2018-01-25T15:17:26.614Z,9.22
2018-01-25T15:19:54.408Z,9.16
2018-01-25T15:22:23.052Z,9.08
2018-01-25T15:24:53.921Z,9.02
2018-01-25T15:27:27.159Z,8.96
2018-01-25T15:29:56.604Z,8.90
2018-01-25T15:32:24.371Z,8.83
2018-01-25T15:34:53.716Z,8.76
2018-01-25T15:37:21.497Z,8.71
2018-01-25T15:39:50.941Z,8.64
2018-01-25T15:42:19.351Z,8.58
2018-01-25T15:44:47.199Z,8.52
2018-01-25T15:47:14.992Z,8.46
2018-01-25T15:49:42.684Z,8.41
2018-01-25T15:52:11.134Z,8.36
2018-01-25T15:54:41.473Z,8.29
2018-01-25T15:59:08.002Z,8.19
2018-01-25T16:01:36.523Z,8.14
2018-01-25T16:04:04.992Z,8.09
2018-01-25T16:06:35.132Z,8.03
2018-01-25T16:09:06.215Z,8.01
2018-01-25T16:11:34.656Z,7.98
2018-01-25T16:14:03.135Z,7.95
2018-01-25T16:16:33.253Z,7.90
2018-01-25T16:19:02.457Z,7.83
2018-01-25T16:21:30.826Z,7.78
2018-01-25T16:24:00.009Z,7.74
2018-01-25T16:26:28.429Z,7.71
2018-01-25T16:28:57.804Z,7.67
2018-01-25T16:31:27.001Z,7.62
2018-01-25T16:33:56.143Z,7.58
2018-01-25T16:36:26.063Z,7.53
2018-01-25T16:38:54.432Z,7.49
2018-01-25T16:41:23.548Z,7.46
2018-01-25T16:43:54.848Z,7.42
2018-01-25T16:46:23.314Z,7.38
2018-01-25T16:48:51.781Z,7.36
2018-01-25T16:51:22.207Z,7.32
2018-01-25T16:53:53.631Z,7.28
2018-01-25T16:56:30.983Z,7.24
2018-01-25T16:59:01.335Z,7.20
2018-01-25T17:01:29.924Z,7.17
2018-01-25T17:03:59.269Z,7.13
2018-01-25T17:06:28.323Z,7.10
2018-01-25T17:08:56.639Z,7.07
2018-01-25T17:11:25.021Z,7.04
2018-01-25T17:13:53.469Z,7.00
2018-01-25T17:16:23.635Z,6.97
2018-01-25T17:18:52.021Z,6.95
2018-01-25T17:21:20.664Z,6.92
2018-01-25T17:23:48.982Z,6.89
2018-01-25T17:26:18.001Z,6.85
2018-01-25T17:28:46.439Z,6.82
2018-01-25T17:31:14.995Z,6.78
2018-01-25T17:33:44.131Z,6.74
2018-01-25T17:36:12.642Z,6.71
2018-01-25T17:38:42.515Z,6.66
2018-01-25T17:41:11.820Z,6.63
2018-01-25T17:43:45.455Z,6.60
2018-01-25T17:46:14.400Z,6.57
2018-01-25T17:48:45.386Z,6.53
2018-01-25T17:51:13.712Z,6.50
2018-01-25T17:53:42.873Z,6.47
2018-01-25T17:56:14.306Z,6.41
2018-01-25T17:58:44.131Z,6.38
2018-01-25T18:01:14.114Z,6.36
2018-01-25T18:03:42.528Z,6.34
2018-01-25T18:06:12.613Z,6.30
2018-01-25T18:08:44.177Z,6.26
2018-01-25T18:11:12.702Z,6.19
2018-01-25T18:13:45.950Z,6.16
2018-01-25T18:16:16.400Z,6.12
2018-01-25T18:18:45.412Z,6.12
2018-01-25T18:21:13.845Z,6.09
2018-01-25T18:23:44.577Z,6.08
2018-01-25T18:26:12.937Z,6.05
2018-01-25T18:28:41.391Z,6.03
2018-01-25T18:31:12.636Z,6.02
2018-01-25T18:33:42.288Z,6.01
2018-01-25T18:36:12.273Z,5.99
2018-01-25T18:38:42.532Z,5.96
2018-01-25T18:41:11.810Z,5.93
2018-01-25T18:43:45.185Z,5.90
2018-01-25T18:46:16.134Z,5.85
2018-01-25T18:48:46.391Z,5.81
2018-01-25T18:51:14.883Z,5.78
2018-01-25T18:53:43.238Z,5.75
2018-01-25T18:56:11.725Z,5.72
2018-01-25T18:58:41.787Z,5.70
2018-01-25T19:01:12.104Z,5.70
2018-01-25T19:03:42.670Z,5.70
2018-01-25T19:06:11.519Z,5.70
2018-01-25T19:08:39.983Z,5.69
2018-01-25T19:11:08.372Z,5.69
2018-01-25T19:13:36.966Z,5.68
2018-01-25T19:16:05.415Z,5.67
2018-01-25T19:18:34.049Z,5.67
2018-01-25T19:21:04.190Z,5.65
2018-01-25T19:23:33.660Z,5.64
2018-01-25T19:26:01.994Z,5.63
2018-01-25T19:28:30.410Z,5.61
2018-01-25T19:31:01.352Z,5.59
2018-01-25T19:33:30.545Z,5.56
2018-01-25T19:36:00.160Z,5.54
2018-01-25T19:38:28.944Z,5.53
2018-01-25T19:40:59.369Z,5.52
2018-01-25T19:43:30.579Z,5.52
2018-01-25T19:45:59.100Z,5.50
2018-01-25T19:48:27.573Z,5.50
2018-01-25T19:50:55.979Z,5.49
2018-01-25T19:53:24.464Z,5.48
2018-01-25T19:55:53.647Z,5.46
2018-01-25T19:58:24.010Z,5.44
2018-01-25T20:00:54.100Z,5.42
2018-01-25T20:03:22.558Z,5.39
2018-01-25T20:05:53.758Z,5.37
2018-01-25T20:08:23.244Z,5.35
2018-01-25T20:10:51.726Z,5.33
2018-01-25T20:13:20.921Z,5.32
2018-01-25T20:15:49.303Z,5.31
2018-01-25T20:18:20.619Z,5.30
2018-01-25T20:20:51.402Z,5.29
2018-01-25T20:23:19.917Z,5.28
2018-01-25T20:25:48.587Z,5.26
2018-01-25T20:28:17.103Z,5.23
2018-01-25T20:30:47.356Z,5.21
2018-01-25T20:33:18.061Z,5.19
2018-01-25T20:35:48.340Z,5.18
2018-01-25T20:38:19.164Z,5.17
2018-01-25T20:40:48.720Z,5.16
2018-01-25T20:43:18.215Z,5.13
2018-01-25T20:45:46.692Z,5.11
2018-01-25T20:48:15.485Z,5.09
2018-01-25T20:50:44.169Z,5.08
2018-01-25T20:53:12.769Z,5.08
2018-01-25T20:55:43.741Z,5.07
2018-01-25T20:58:12.286Z,5.04
2018-01-25T21:00:42.365Z,5.03
2018-01-25T21:03:10.812Z,5.01
2018-01-25T21:05:39.128Z,5.02
2018-01-25T21:08:07.481Z,5.01
2018-01-25T21:10:35.839Z,5.01
2018-01-25T21:13:05.888Z,5.02
2018-01-25T21:15:34.280Z,5.02
2018-01-25T21:18:02.640Z,4.99
2018-01-25T21:20:32.823Z,4.96
2018-01-25T21:23:01.259Z,4.95
2018-01-25T21:25:29.711Z,4.93
2018-01-25T21:27:58.039Z,4.91
2018-01-25T21:30:28.889Z,4.91
2018-01-25T21:32:59.947Z,4.91
2018-01-25T21:35:28.416Z,4.92
2018-01-25T21:37:56.781Z,4.91
2018-01-25T21:40:25.143Z,4.89
2018-01-25T21:42:53.508Z,4.87
2018-01-25T21:45:21.869Z,4.85
2018-01-25T21:47:50.236Z,4.82
2018-01-25T21:50:18.624Z,4.79
2018-01-25T21:52:49.387Z,4.78
2018-01-25T21:55:18.576Z,4.76
2018-01-25T21:57:46.966Z,4.76
2018-01-25T22:00:17.923Z,4.74
2018-01-25T22:02:46.242Z,4.71
2018-01-25T22:05:15.773Z,4.70
2018-01-25T22:07:44.135Z,4.69
2018-01-25T22:10:12.512Z,4.68
2018-01-25T22:12:41.675Z,4.67
2018-01-25T22:15:09.995Z,4.66
2018-01-25T22:17:38.387Z,4.63
2018-01-25T22:20:06.749Z,4.60
2018-01-25T22:22:35.904Z,4.55
2018-01-25T22:25:05.823Z,4.54
2018-01-25T22:27:34.186Z,4.54
2018-01-25T22:30:02.491Z,4.57
2018-01-25T22:32:30.886Z,4.56
2018-01-25T22:34:59.189Z,4.56
2018-01-25T22:37:29.263Z,4.57
2018-01-25T22:40:00.282Z,4.57
2018-01-25T22:42:28.673Z,4.55
2018-01-25T22:44:56.949Z,4.56
2018-01-25T22:47:27.076Z,4.59
2018-01-25T22:49:56.165Z,4.61
2018-01-25T22:52:25.519Z,4.60
2018-01-25T22:54:53.953Z,4.60
2018-01-25T22:57:22.279Z,4.58
2018-01-25T22:59:50.651Z,4.56
2018-01-25T23:02:18.961Z,4.55
2018-01-25T23:04:47.305Z,4.50
2018-01-25T23:07:17.303Z,4.48
2018-01-25T23:09:46.391Z,4.46
2018-01-25T23:12:16.473Z,4.49
2018-01-25T23:14:44.810Z,4.47
2018-01-25T23:17:14.865Z,4.42
2018-01-25T23:19:46.055Z,4.39
2018-01-25T23:22:14.553Z,4.37
2018-01-25T23:24:43.645Z,4.36
2018-01-25T23:27:12.230Z,4.37
2018-01-25T23:29:40.560Z,4.36
2018-01-25T23:32:08.847Z,4.38
2018-01-25T23:34:37.161Z,4.40
2018-01-25T23:37:06.267Z,4.38
2018-01-25T23:39:36.907Z,4.37
2018-01-25T23:42:05.241Z,4.37
2018-01-25T23:44:33.529Z,4.38
2018-01-25T23:47:02.006Z,4.39
2018-01-25T23:49:30.365Z,4.40
2018-01-25T23:51:58.683Z,4.42
2018-01-25T23:54:26.983Z,4.44
2018-01-25T23:56:55.313Z,4.45
2018-01-25T23:59:23.585Z,4.46
